PWSweather.com
Personal Weather Stations
Station Observations
J24K28P63
Vysocina, PocatkyCZ 39464

VysocinaPocatkyCZ 39464

Lat: 49.2594238, Lon: 15.2331769

Elevation: 2011

Station Type: Vantage Pro2+

http://meteo-jirkalina.com

High Low Average
Temperature 70.5°F21.4°C 51.7°F10.9°C 61.9°F16.6°C
Dew Point 58.4°F14.7°C 43.3°F6.3°C 53.7°F12.1°C
Winds 10.6 mph 17.1 kmh Calm Calm 5.0 mph WSW8.0 kmh WSW
Wind Gusts 17.0 mph27.4 kmh -- 8.0 mph12.9 kmh
Humidity 100% 45% 76%
Pressure 30.04 in1017.3 mb 29.91 in1012.9 mb -
Precipitation 0.00 in0.0 mm - -
Hour Temp Dew Point Humidity Winds Wind Gusts Pressure Precip Precip Rate Daily Precip Total
12:00 AM 57.9°F14.4°C 57.3°F14.1°C 98% 3.0 mph S4.8 kmh S 8.0 mph12.9 kmh 29.93 in1013.5 mb 0.00 in0.0 mm 0.00 in0.0 mm 0.00 in0.0 mm
12:10 AM 58.0°F14.4°C 57.4°F14.1°C 98% 3.0 mph S4.8 kmh S 5.0 mph8.0 kmh 29.93 in1013.5 mb 0.00 in0.0 mm 0.00 in0.0 mm 0.00 in0.0 mm
12:20 AM 58.1°F14.5°C 57.5°F14.2°C 98% 2.0 mph SE3.2 kmh SE 5.0 mph8.0 kmh 29.93 in1013.5 mb 0.00 in0.0 mm 0.00 in0.0 mm 0.00 in0.0 mm
12:30 AM 58.2°F14.6°C 57.6°F14.2°C 98% 2.0 mph SSE3.2 kmh SSE 8.0 mph12.9 kmh 29.94 in1013.9 mb 0.00 in0.0 mm 0.00 in0.0 mm 0.00 in0.0 mm
12:40 AM 58.3°F14.6°C 57.7°F14.3°C 98% 3.0 mph S4.8 kmh S 7.0 mph11.3 kmh 29.94 in1013.9 mb 0.00 in0.0 mm 0.00 in0.0 mm 0.00 in0.0 mm
12:50 AM 58.3°F14.6°C 57.7°F14.3°C 98% 6.0 mph S9.7 kmh S 10.0 mph16.1 kmh 29.94 in1013.9 mb 0.00 in0.0 mm 0.00 in0.0 mm 0.00 in0.0 mm
01:00 AM 58.4°F14.7°C 57.8°F14.3°C 98% 5.0 mph S8.0 kmh S 9.0 mph14.5 kmh 29.94 in1013.9 mb 0.00 in0.0 mm 0.00 in0.0 mm 0.00 in0.0 mm
01:10 AM 58.4°F14.7°C 57.8°F14.3°C 98% 3.0 mph SSE4.8 kmh SSE 7.0 mph11.3 kmh 29.94 in1013.9 mb 0.00 in0.0 mm 0.00 in0.0 mm 0.00 in0.0 mm
01:20 AM 58.4°F14.7°C 57.8°F14.3°C 98% 5.0 mph S8.0 kmh S 5.0 mph8.0 kmh 29.94 in1013.9 mb 0.00 in0.0 mm 0.00 in0.0 mm 0.00 in0.0 mm
01:30 AM 58.4°F14.7°C 57.8°F14.3°C 98% 5.0 mph S8.0 kmh S 8.0 mph12.9 kmh 29.94 in1013.9 mb 0.00 in0.0 mm 0.00 in0.0 mm 0.00 in0.0 mm
01:40 AM 58.4°F14.7°C 57.8°F14.3°C 98% 3.0 mph S4.8 kmh S 7.0 mph11.3 kmh 29.94 in1013.9 mb 0.00 in0.0 mm 0.00 in0.0 mm 0.00 in0.0 mm
01:50 AM 58.4°F14.7°C 57.8°F14.3°C 98% 3.0 mph S4.8 kmh S 6.0 mph9.7 kmh 29.94 in1013.9 mb 0.00 in0.0 mm 0.00 in0.0 mm 0.00 in0.0 mm
02:00 AM 58.4°F14.7°C 57.8°F14.3°C 98% 5.0 mph SSW8.0 kmh SSW 7.0 mph11.3 kmh 29.93 in1013.5 mb 0.00 in0.0 mm 0.00 in0.0 mm 0.00 in0.0 mm
02:10 AM 58.4°F14.7°C 57.8°F14.3°C 98% 5.0 mph SW8.0 kmh SW 7.0 mph11.3 kmh 29.93 in1013.5 mb 0.00 in0.0 mm 0.00 in0.0 mm 0.00 in0.0 mm
02:20 AM 58.4°F14.7°C 57.8°F14.3°C 98% 5.0 mph SSW8.0 kmh SSW 9.0 mph14.5 kmh 29.93 in1013.5 mb 0.00 in0.0 mm 0.00 in0.0 mm 0.00 in0.0 mm
02:30 AM 58.4°F14.7°C 57.8°F14.3°C 98% 5.0 mph S8.0 kmh S 7.0 mph11.3 kmh 29.93 in1013.5 mb 0.00 in0.0 mm 0.00 in0.0 mm 0.00 in0.0 mm
02:40 AM 58.5°F14.7°C 57.9°F14.4°C 98% 5.0 mph S8.0 kmh S 9.0 mph14.5 kmh 29.93 in1013.5 mb 0.00 in0.0 mm 0.00 in0.0 mm 0.00 in0.0 mm
02:50 AM 58.5°F14.7°C 57.9°F14.4°C 98% 2.0 mph SSW3.2 kmh SSW 5.0 mph8.0 kmh 29.93 in1013.5 mb 0.00 in0.0 mm 0.00 in0.0 mm 0.00 in0.0 mm
03:00 AM 58.5°F14.7°C 57.7°F14.3°C 97% 2.0 mph SSW3.2 kmh SSW 8.0 mph12.9 kmh 29.94 in1013.9 mb 0.00 in0.0 mm 0.00 in0.0 mm 0.00 in0.0 mm
03:10 AM 58.6°F14.8°C 57.8°F14.3°C 97% 2.0 mph SW3.2 kmh SW 5.0 mph8.0 kmh 29.94 in1013.9 mb 0.00 in0.0 mm 0.00 in0.0 mm 0.00 in0.0 mm
03:20 AM 58.6°F14.8°C 57.8°F14.3°C 97% 2.0 mph SW3.2 kmh SW 5.0 mph8.0 kmh 29.94 in1013.9 mb 0.00 in0.0 mm 0.00 in0.0 mm 0.00 in0.0 mm
03:30 AM 58.6°F14.8°C 57.8°F14.3°C 97% 5.0 mph SW8.0 kmh SW 7.0 mph11.3 kmh 29.94 in1013.9 mb 0.00 in0.0 mm 0.00 in0.0 mm 0.00 in0.0 mm
03:40 AM 58.6°F14.8°C 57.7°F14.3°C 97% 3.0 mph SW4.8 kmh SW 8.0 mph12.9 kmh 29.94 in1013.9 mb 0.00 in0.0 mm 0.00 in0.0 mm 0.00 in0.0 mm
03:50 AM 58.5°F14.7°C 57.7°F14.3°C 97% 5.0 mph SSW8.0 kmh SSW 10.0 mph16.1 kmh 29.94 in1013.9 mb 0.00 in0.0 mm 0.00 in0.0 mm 0.00 in0.0 mm
04:00 AM 58.3°F14.6°C 57.5°F14.2°C 97% 5.0 mph SW8.0 kmh SW 8.0 mph12.9 kmh 29.94 in1013.9 mb 0.00 in0.0 mm 0.00 in0.0 mm 0.00 in0.0 mm
04:10 AM 58.2°F14.6°C 57.1°F13.9°C 96% 6.0 mph SW9.7 kmh SW 12.0 mph19.3 kmh 29.93 in1013.5 mb 0.00 in0.0 mm 0.00 in0.0 mm 0.00 in0.0 mm
04:20 AM 58.1°F14.5°C 57.0°F13.9°C 96% 5.0 mph SW8.0 kmh SW 7.0 mph11.3 kmh 29.93 in1013.5 mb 0.00 in0.0 mm 0.00 in0.0 mm 0.00 in0.0 mm
04:30 AM 57.8°F14.3°C 56.7°F13.7°C 96% 3.0 mph SW4.8 kmh SW 5.0 mph8.0 kmh 29.93 in1013.5 mb 0.00 in0.0 mm 0.00 in0.0 mm 0.00 in0.0 mm
04:40 AM 57.6°F14.2°C 56.2°F13.4°C 95% 3.0 mph SW4.8 kmh SW 7.0 mph11.3 kmh 29.94 in1013.9 mb 0.00 in0.0 mm 0.00 in0.0 mm 0.00 in0.0 mm
04:50 AM 57.4°F14.1°C 56.0°F13.3°C 95% 2.0 mph SW3.2 kmh SW 5.0 mph8.0 kmh 29.94 in1013.9 mb 0.00 in0.0 mm 0.00 in0.0 mm 0.00 in0.0 mm
05:00 AM 57.3°F14.1°C 55.9°F13.3°C 95% 1.0 mph SW1.6 kmh SW 5.0 mph8.0 kmh 29.94 in1013.9 mb 0.00 in0.0 mm 0.00 in0.0 mm 0.00 in0.0 mm
05:10 AM 57.1°F13.9°C 55.7°F13.2°C 95% 5.0 mph SW8.0 kmh SW 7.0 mph11.3 kmh 29.94 in1013.9 mb 0.00 in0.0 mm 0.00 in0.0 mm 0.00 in0.0 mm
05:20 AM 57.0°F13.9°C 55.6°F13.1°C 95% 7.0 mph SSW11.3 kmh SSW 10.0 mph16.1 kmh 29.93 in1013.5 mb - 0.00 in0.0 mm 0.00 in0.0 mm
05:30 AM 56.9°F13.8°C 55.5°F13.1°C 95% 7.0 mph SW11.3 kmh SW 13.0 mph20.9 kmh 29.94 in1013.9 mb - 0.00 in0.0 mm 0.00 in0.0 mm
05:40 AM 57.0°F13.9°C 55.6°F13.1°C 95% 6.0 mph SW9.7 kmh SW 10.0 mph16.1 kmh 29.93 in1013.5 mb - 0.00 in0.0 mm 0.00 in0.0 mm
05:50 AM 57.1°F13.9°C 55.7°F13.2°C 95% 6.0 mph SW9.7 kmh SW 12.0 mph19.3 kmh 29.94 in1013.9 mb - 0.00 in0.0 mm 0.00 in0.0 mm
06:00 AM 57.3°F14.1°C 55.6°F13.1°C 94% 7.0 mph SW11.3 kmh SW 12.0 mph19.3 kmh 29.94 in1013.9 mb - 0.00 in0.0 mm 0.00 in0.0 mm
06:10 AM 57.8°F14.3°C 56.1°F13.4°C 94% 6.0 mph WSW9.7 kmh WSW 12.0 mph19.3 kmh 29.94 in1013.9 mb - 0.00 in0.0 mm 0.00 in0.0 mm
06:20 AM 58.4°F14.7°C 56.1°F13.4°C 92% 7.0 mph SW11.3 kmh SW 9.0 mph14.5 kmh 29.95 in1014.2 mb - 0.00 in0.0 mm 0.00 in0.0 mm
06:30 AM 59.2°F15.1°C 56.2°F13.4°C 90% 7.0 mph SSW11.3 kmh SSW 10.0 mph16.1 kmh 29.95 in1014.2 mb - 0.00 in0.0 mm 0.00 in0.0 mm
06:40 AM 60.1°F15.6°C 56.5°F13.6°C 88% 7.0 mph SSW11.3 kmh SSW 9.0 mph14.5 kmh 29.95 in1014.2 mb - 0.00 in0.0 mm 0.00 in0.0 mm
06:50 AM 61.1°F16.2°C 56.9°F13.8°C 86% 6.0 mph SW9.7 kmh SW 10.0 mph16.1 kmh 29.95 in1014.2 mb - 0.00 in0.0 mm 0.00 in0.0 mm
07:00 AM 62.2°F16.8°C 57.3°F14.1°C 84% 5.0 mph SSW8.0 kmh SSW 12.0 mph19.3 kmh 29.96 in1014.6 mb - 0.00 in0.0 mm 0.00 in0.0 mm
07:10 AM 63.3°F17.4°C 57.8°F14.3°C 82% 5.0 mph SW8.0 kmh SW 12.0 mph19.3 kmh 29.96 in1014.6 mb - 0.00 in0.0 mm 0.00 in0.0 mm
07:20 AM 64.4°F18.0°C 58.4°F14.7°C 81% 6.0 mph WSW9.7 kmh WSW 9.0 mph14.5 kmh 29.96 in1014.6 mb - 0.00 in0.0 mm 0.00 in0.0 mm
07:30 AM 65.1°F18.4°C 58.1°F14.5°C 78% 5.0 mph SW8.0 kmh SW 12.0 mph19.3 kmh 29.97 in1014.9 mb - 0.00 in0.0 mm 0.00 in0.0 mm
07:40 AM 65.8°F18.8°C 57.6°F14.2°C 75% 7.0 mph SW11.3 kmh SW 15.0 mph24.1 kmh 29.96 in1014.6 mb - 0.00 in0.0 mm 0.00 in0.0 mm
07:50 AM 66.2°F19.0°C 57.3°F14.1°C 73% 7.0 mph SSW11.3 kmh SSW 15.0 mph24.1 kmh 29.97 in1014.9 mb - 0.00 in0.0 mm 0.00 in0.0 mm
08:00 AM 66.5°F19.2°C 56.8°F13.8°C 71% 7.0 mph W11.3 kmh W 12.0 mph19.3 kmh 29.97 in1014.9 mb - 0.00 in0.0 mm 0.00 in0.0 mm
08:10 AM 67.0°F19.4°C 56.9°F13.8°C 70% 7.0 mph SW11.3 kmh SW 10.0 mph16.1 kmh 29.97 in1014.9 mb - 0.00 in0.0 mm 0.00 in0.0 mm
08:20 AM 67.5°F19.7°C 57.0°F13.9°C 69% 8.0 mph SW12.9 kmh SW 13.0 mph20.9 kmh 29.97 in1014.9 mb - 0.00 in0.0 mm 0.00 in0.0 mm
08:30 AM 67.8°F19.9°C 56.9°F13.8°C 68% 9.0 mph SW14.5 kmh SW 12.0 mph19.3 kmh 29.97 in1014.9 mb - 0.00 in0.0 mm 0.00 in0.0 mm
08:40 AM 68.0°F20.0°C 56.3°F13.5°C 66% 8.0 mph SW12.9 kmh SW 14.0 mph22.5 kmh 29.98 in1015.2 mb - 0.00 in0.0 mm 0.00 in0.0 mm
08:50 AM 68.3°F20.2°C 57.0°F13.9°C 67% 7.0 mph SW11.3 kmh SW 12.0 mph19.3 kmh 29.98 in1015.2 mb - 0.00 in0.0 mm 0.00 in0.0 mm
09:00 AM 69.1°F20.6°C 57.3°F14.1°C 66% 8.0 mph SW12.9 kmh SW 13.0 mph20.9 kmh 29.98 in1015.2 mb - 0.00 in0.0 mm 0.00 in0.0 mm
09:10 AM 70.0°F21.1°C 57.3°F14.1°C 64% 9.0 mph SW14.5 kmh SW 13.0 mph20.9 kmh 29.98 in1015.2 mb - 0.00 in0.0 mm 0.00 in0.0 mm
09:20 AM 69.7°F20.9°C 56.1°F13.4°C 62% 9.0 mph SW14.5 kmh SW 15.0 mph24.1 kmh 29.98 in1015.2 mb - 0.00 in0.0 mm 0.00 in0.0 mm
09:30 AM 68.2°F20.1°C 56.0°F13.3°C 65% 8.0 mph S12.9 kmh S 10.0 mph16.1 kmh 29.99 in1015.6 mb - 0.00 in0.0 mm 0.00 in0.0 mm
09:40 AM 68.1°F20.1°C 55.9°F13.3°C 65% 6.0 mph WSW9.7 kmh WSW 10.0 mph16.1 kmh 29.99 in1015.6 mb - 0.00 in0.0 mm 0.00 in0.0 mm
09:50 AM 68.8°F20.4°C 56.6°F13.7°C 65% 8.0 mph SW12.9 kmh SW 12.0 mph19.3 kmh 29.99 in1015.6 mb - 0.00 in0.0 mm 0.00 in0.0 mm
10:00 AM 69.7°F20.9°C 57.0°F13.9°C 64% 9.0 mph SW14.5 kmh SW 13.0 mph20.9 kmh 29.99 in1015.6 mb - 0.00 in0.0 mm 0.00 in0.0 mm
10:10 AM 70.5°F21.4°C 57.3°F14.1°C 63% 8.0 mph SW12.9 kmh SW 14.0 mph22.5 kmh 29.99 in1015.6 mb - 0.00 in0.0 mm 0.00 in0.0 mm
10:20 AM 70.0°F21.1°C 56.4°F13.6°C 62% 8.0 mph SSW12.9 kmh SSW 14.0 mph22.5 kmh 29.99 in1015.6 mb - 0.00 in0.0 mm 0.00 in0.0 mm
10:30 AM 70.3°F21.3°C 56.6°F13.7°C 62% 7.0 mph WSW11.3 kmh WSW 12.0 mph19.3 kmh 29.99 in1015.6 mb - 0.00 in0.0 mm 0.00 in0.0 mm
10:40 AM 69.9°F21.1°C 55.8°F13.2°C 61% 9.0 mph SW14.5 kmh SW 12.0 mph19.3 kmh 29.99 in1015.6 mb - 0.00 in0.0 mm 0.00 in0.0 mm
10:50 AM 69.9°F21.1°C 56.7°F13.7°C 63% 8.0 mph SSW12.9 kmh SSW 12.0 mph19.3 kmh 29.99 in1015.6 mb - 0.00 in0.0 mm 0.00 in0.0 mm
11:00 AM 70.3°F21.3°C 56.2°F13.4°C 61% 7.0 mph SW11.3 kmh SW 8.0 mph12.9 kmh 29.99 in1015.6 mb - 0.00 in0.0 mm 0.00 in0.0 mm
11:10 AM 68.7°F20.4°C 54.7°F12.6°C 61% 8.0 mph W12.9 kmh W 14.0 mph22.5 kmh 30.00 in1015.9 mb - 0.00 in0.0 mm 0.00 in0.0 mm
11:20 AM 67.0°F19.4°C 55.3°F12.9°C 66% 9.0 mph W14.5 kmh W 14.0 mph22.5 kmh 30.00 in1015.9 mb - 0.00 in0.0 mm 0.00 in0.0 mm
11:30 AM 65.7°F18.7°C 54.9°F12.7°C 68% 8.0 mph WNW12.9 kmh WNW 12.0 mph19.3 kmh 30.00 in1015.9 mb - 0.00 in0.0 mm 0.00 in0.0 mm
11:40 AM 65.1°F18.4°C 55.5°F13.1°C 71% 7.0 mph SW11.3 kmh SW 10.0 mph16.1 kmh 30.01 in1016.3 mb - 0.00 in0.0 mm 0.00 in0.0 mm
11:50 AM 66.4°F19.1°C 57.1°F13.9°C 72% 7.0 mph WSW11.3 kmh WSW 13.0 mph20.9 kmh 30.01 in1016.3 mb - 0.00 in0.0 mm 0.00 in0.0 mm
12:00 PM 67.7°F19.8°C 56.4°F13.6°C 67% 7.0 mph W11.3 kmh W 10.0 mph16.1 kmh 30.01 in1016.3 mb - 0.00 in0.0 mm 0.00 in0.0 mm
12:10 PM 66.5°F19.2°C 56.0°F13.3°C 69% 5.0 mph WSW8.0 kmh WSW 8.0 mph12.9 kmh 30.01 in1016.3 mb - 0.00 in0.0 mm 0.00 in0.0 mm
12:20 PM 66.5°F19.2°C 55.2°F12.9°C 67% 5.0 mph W8.0 kmh W 8.0 mph12.9 kmh 30.00 in1015.9 mb - 0.00 in0.0 mm 0.00 in0.0 mm
12:30 PM 66.2°F19.0°C 55.3°F12.9°C 68% 6.0 mph SW9.7 kmh SW 7.0 mph11.3 kmh 30.00 in1015.9 mb - 0.00 in0.0 mm 0.00 in0.0 mm
12:40 PM 66.8°F19.3°C 54.2°F12.3°C 64% 8.0 mph W12.9 kmh W 12.0 mph19.3 kmh 30.01 in1016.3 mb - 0.00 in0.0 mm 0.00 in0.0 mm
12:50 PM 67.0°F19.4°C 54.4°F12.4°C 64% 8.0 mph WSW12.9 kmh WSW 13.0 mph20.9 kmh 30.01 in1016.3 mb - 0.00 in0.0 mm 0.00 in0.0 mm
01:00 PM 68.5°F20.3°C 54.5°F12.5°C 61% 7.0 mph W11.3 kmh W 10.0 mph16.1 kmh 30.01 in1016.3 mb - 0.00 in0.0 mm 0.00 in0.0 mm
01:10 PM 68.9°F20.5°C 55.3°F12.9°C 62% 9.0 mph WSW14.5 kmh WSW 13.0 mph20.9 kmh 30.01 in1016.3 mb - 0.00 in0.0 mm 0.00 in0.0 mm
01:20 PM 68.4°F20.2°C 52.6°F11.4°C 57% 9.0 mph WSW14.5 kmh WSW 13.0 mph20.9 kmh 30.01 in1016.3 mb - 0.00 in0.0 mm 0.00 in0.0 mm
01:30 PM 67.1°F19.5°C 53.2°F11.8°C 61% 7.0 mph W11.3 kmh W 9.0 mph14.5 kmh 30.01 in1016.3 mb - 0.00 in0.0 mm 0.00 in0.0 mm
01:40 PM 67.7°F19.8°C 52.9°F11.6°C 59% 7.0 mph WSW11.3 kmh WSW 12.0 mph19.3 kmh 30.02 in1016.6 mb - 0.00 in0.0 mm 0.00 in0.0 mm
01:50 PM 69.5°F20.8°C 54.6°F12.6°C 59% 7.0 mph W11.3 kmh W 10.0 mph16.1 kmh 30.02 in1016.6 mb - 0.00 in0.0 mm 0.00 in0.0 mm
02:00 PM 70.4°F21.3°C 53.5°F11.9°C 55% 5.0 mph WSW8.0 kmh WSW 10.0 mph16.1 kmh 30.01 in1016.3 mb - 0.00 in0.0 mm 0.00 in0.0 mm
02:10 PM 68.7°F20.4°C 53.8°F12.1°C 59% 7.0 mph W11.3 kmh W 10.0 mph16.1 kmh 30.01 in1016.3 mb - 0.00 in0.0 mm 0.00 in0.0 mm
02:20 PM 68.4°F20.2°C 53.5°F11.9°C 59% 7.0 mph WNW11.3 kmh WNW 10.0 mph16.1 kmh 30.01 in1016.3 mb - 0.00 in0.0 mm 0.00 in0.0 mm
02:30 PM 67.5°F19.7°C 52.2°F11.2°C 58% 9.0 mph WSW14.5 kmh WSW 13.0 mph20.9 kmh 30.01 in1016.3 mb - 0.00 in0.0 mm 0.00 in0.0 mm
02:40 PM 67.3°F19.6°C 53.4°F11.9°C 61% 7.0 mph W11.3 kmh W 12.0 mph19.3 kmh 30.02 in1016.6 mb - 0.00 in0.0 mm 0.00 in0.0 mm
02:50 PM 67.1°F19.5°C 52.3°F11.3°C 59% 9.0 mph WSW14.5 kmh WSW 13.0 mph20.9 kmh 30.02 in1016.6 mb - 0.00 in0.0 mm 0.00 in0.0 mm
03:00 PM 65.7°F18.7°C 52.4°F11.3°C 62% 7.0 mph WSW11.3 kmh WSW 9.0 mph14.5 kmh 30.02 in1016.6 mb - 0.00 in0.0 mm 0.00 in0.0 mm
03:10 PM 65.1°F18.4°C 51.3°F10.7°C 61% 7.0 mph W11.3 kmh W 12.0 mph19.3 kmh 30.02 in1016.6 mb - 0.00 in0.0 mm 0.00 in0.0 mm
03:20 PM 65.3°F18.5°C 51.9°F11.1°C 62% 8.0 mph WNW12.9 kmh WNW 13.0 mph20.9 kmh 30.02 in1016.6 mb - 0.00 in0.0 mm 0.00 in0.0 mm
03:30 PM 65.2°F18.4°C 51.4°F10.8°C 61% 7.0 mph W11.3 kmh W 13.0 mph20.9 kmh 30.02 in1016.6 mb - 0.00 in0.0 mm 0.00 in0.0 mm
03:40 PM 65.8°F18.8°C 52.9°F11.6°C 63% 10.0 mph W16.1 kmh W 15.0 mph24.1 kmh 30.03 in1016.9 mb - 0.00 in0.0 mm 0.00 in0.0 mm
03:50 PM 68.6°F20.3°C 51.8°F11.0°C 55% 8.0 mph WNW12.9 kmh WNW 14.0 mph22.5 kmh 30.02 in1016.6 mb - 0.00 in0.0 mm 0.00 in0.0 mm
04:00 PM 67.3°F19.6°C 52.0°F11.1°C 58% 9.0 mph WSW14.5 kmh WSW 10.0 mph16.1 kmh 30.03 in1016.9 mb - 0.00 in0.0 mm 0.00 in0.0 mm
04:10 PM 65.8°F18.8°C 52.0°F11.1°C 61% 7.0 mph W11.3 kmh W 12.0 mph19.3 kmh 30.03 in1016.9 mb - 0.00 in0.0 mm 0.00 in0.0 mm
04:20 PM 65.8°F18.8°C 52.4°F11.3°C 62% 7.0 mph W11.3 kmh W 10.0 mph16.1 kmh 30.03 in1016.9 mb - 0.00 in0.0 mm 0.00 in0.0 mm
04:30 PM 66.2°F19.0°C 53.3°F11.8°C 63% 8.0 mph W12.9 kmh W 10.0 mph16.1 kmh 30.03 in1016.9 mb - 0.00 in0.0 mm 0.00 in0.0 mm
04:40 PM 67.9°F19.9°C 53.0°F11.7°C 59% 7.0 mph W11.3 kmh W 12.0 mph19.3 kmh 30.03 in1016.9 mb - 0.00 in0.0 mm 0.00 in0.0 mm
04:50 PM 69.5°F20.8°C 53.1°F11.7°C 56% 6.0 mph W9.7 kmh W 10.0 mph16.1 kmh 30.03 in1016.9 mb - 0.00 in0.0 mm 0.00 in0.0 mm
05:00 PM 69.6°F20.9°C 52.7°F11.5°C 55% 8.0 mph WSW12.9 kmh WSW 12.0 mph19.3 kmh 30.02 in1016.6 mb - 0.00 in0.0 mm 0.00 in0.0 mm
05:10 PM 69.0°F20.6°C 51.6°F10.9°C 54% 6.0 mph WSW9.7 kmh WSW 12.0 mph19.3 kmh 30.02 in1016.6 mb - 0.00 in0.0 mm 0.00 in0.0 mm
05:20 PM 67.6°F19.8°C 51.4°F10.8°C 56% 7.0 mph WNW11.3 kmh WNW 10.0 mph16.1 kmh 30.02 in1016.6 mb - 0.00 in0.0 mm 0.00 in0.0 mm
05:30 PM 66.4°F19.1°C 51.2°F10.7°C 58% 6.0 mph WSW9.7 kmh WSW 6.0 mph9.7 kmh 30.02 in1016.6 mb - 0.00 in0.0 mm 0.00 in0.0 mm
05:40 PM 65.7°F18.7°C 51.9°F11.1°C 61% 3.0 mph WSW4.8 kmh WSW 7.0 mph11.3 kmh 30.02 in1016.6 mb - 0.00 in0.0 mm 0.00 in0.0 mm
05:50 PM 65.6°F18.7°C 51.3°F10.7°C 60% 3.0 mph WSW4.8 kmh WSW 8.0 mph12.9 kmh 30.02 in1016.6 mb - 0.00 in0.0 mm 0.00 in0.0 mm
06:00 PM 65.7°F18.7°C 51.9°F11.1°C 61% 7.0 mph SW11.3 kmh SW 12.0 mph19.3 kmh 30.02 in1016.6 mb - 0.00 in0.0 mm 0.00 in0.0 mm
06:10 PM 65.9°F18.8°C 52.5°F11.4°C 62% 5.0 mph WSW8.0 kmh WSW 8.0 mph12.9 kmh 30.02 in1016.6 mb - 0.00 in0.0 mm 0.00 in0.0 mm
06:20 PM 65.4°F18.6°C 52.5°F11.4°C 63% 3.0 mph WSW4.8 kmh WSW 6.0 mph9.7 kmh 30.02 in1016.6 mb - 0.00 in0.0 mm 0.00 in0.0 mm
06:30 PM 65.5°F18.6°C 52.1°F11.2°C 62% 3.0 mph SW4.8 kmh SW 5.0 mph8.0 kmh 30.02 in1016.6 mb - 0.00 in0.0 mm 0.00 in0.0 mm
06:40 PM 65.9°F18.8°C 52.5°F11.4°C 62% 5.0 mph SW8.0 kmh SW 7.0 mph11.3 kmh 30.02 in1016.6 mb - 0.00 in0.0 mm 0.00 in0.0 mm
06:50 PM 65.7°F18.7°C 53.1°F11.7°C 64% 5.0 mph WSW8.0 kmh WSW 9.0 mph14.5 kmh 30.03 in1016.9 mb - 0.00 in0.0 mm 0.00 in0.0 mm
07:00 PM 65.4°F18.6°C 52.9°F11.6°C 64% 3.0 mph WSW4.8 kmh WSW 8.0 mph12.9 kmh 30.03 in1016.9 mb - 0.00 in0.0 mm 0.00 in0.0 mm
07:10 PM 64.9°F18.3°C 52.9°F11.6°C 65% 1.0 mph WSW1.6 kmh WSW 3.0 mph4.8 kmh 30.03 in1016.9 mb - 0.00 in0.0 mm 0.00 in0.0 mm
07:20 PM 63.9°F17.7°C 52.7°F11.5°C 67% 1.0 mph WSW1.6 kmh WSW 2.0 mph3.2 kmh 30.02 in1016.6 mb 0.00 in0.0 mm 0.00 in0.0 mm 0.00 in0.0 mm
07:30 PM 63.1°F17.3°C 52.8°F11.6°C 69% 1.0 mph WSW1.6 kmh WSW 2.0 mph3.2 kmh 30.03 in1016.9 mb 0.00 in0.0 mm 0.00 in0.0 mm 0.00 in0.0 mm
07:40 PM 62.5°F16.9°C 52.9°F11.6°C 71% 1.0 mph WSW1.6 kmh WSW 2.0 mph3.2 kmh 30.03 in1016.9 mb 0.00 in0.0 mm 0.00 in0.0 mm 0.00 in0.0 mm
07:50 PM 61.3°F16.3°C 53.3°F11.8°C 75% Calm Calm 1.0 mph1.6 kmh 30.03 in1016.9 mb 0.00 in0.0 mm 0.00 in0.0 mm 0.00 in0.0 mm
08:00 PM 60.4°F15.8°C 53.2°F11.8°C 77% Calm Calm 1.0 mph1.6 kmh 30.03 in1016.9 mb 0.00 in0.0 mm 0.00 in0.0 mm 0.00 in0.0 mm
08:10 PM 59.7°F15.4°C 53.5°F11.9°C 80% Calm Calm 1.0 mph1.6 kmh 30.03 in1016.9 mb 0.00 in0.0 mm 0.00 in0.0 mm 0.00 in0.0 mm
08:20 PM 59.0°F15.0°C 53.2°F11.8°C 81% Calm Calm 1.0 mph1.6 kmh 30.03 in1016.9 mb 0.00 in0.0 mm 0.00 in0.0 mm 0.00 in0.0 mm
08:30 PM 59.0°F15.0°C 53.8°F12.1°C 83% Calm Calm 1.0 mph1.6 kmh 30.03 in1016.9 mb 0.00 in0.0 mm 0.00 in0.0 mm 0.00 in0.0 mm
08:40 PM 59.6°F15.3°C 54.1°F12.3°C 82% Calm Calm 3.0 mph4.8 kmh 30.03 in1016.9 mb 0.00 in0.0 mm 0.00 in0.0 mm 0.00 in0.0 mm
08:50 PM 60.5°F15.8°C 54.3°F12.4°C 80% 1.0 mph WSW1.6 kmh WSW 2.0 mph3.2 kmh 30.03 in1016.9 mb 0.00 in0.0 mm 0.00 in0.0 mm 0.00 in0.0 mm
09:00 PM 61.2°F16.2°C 54.6°F12.6°C 79% 2.0 mph WSW3.2 kmh WSW 3.0 mph4.8 kmh 30.03 in1016.9 mb 0.00 in0.0 mm 0.00 in0.0 mm 0.00 in0.0 mm
09:10 PM 61.2°F16.2°C 54.6°F12.6°C 79% 1.0 mph WSW1.6 kmh WSW 3.0 mph4.8 kmh 30.04 in1017.3 mb 0.00 in0.0 mm 0.00 in0.0 mm 0.00 in0.0 mm
09:20 PM 61.4°F16.3°C 54.8°F12.7°C 79% 3.0 mph WSW4.8 kmh WSW 3.0 mph4.8 kmh 30.04 in1017.3 mb 0.00 in0.0 mm 0.00 in0.0 mm 0.00 in0.0 mm
09:30 PM 61.4°F16.3°C 54.5°F12.5°C 78% 3.0 mph WSW4.8 kmh WSW 3.0 mph4.8 kmh 30.04 in1017.3 mb 0.00 in0.0 mm 0.00 in0.0 mm 0.00 in0.0 mm
09:40 PM 61.4°F16.3°C 54.5°F12.5°C 78% 2.0 mph WSW3.2 kmh WSW 3.0 mph4.8 kmh 30.04 in1017.3 mb 0.00 in0.0 mm 0.00 in0.0 mm 0.00 in0.0 mm
09:50 PM 61.2°F16.2°C 54.3°F12.4°C 78% 2.0 mph WSW3.2 kmh WSW 5.0 mph8.0 kmh 30.04 in1017.3 mb 0.00 in0.0 mm 0.00 in0.0 mm 0.00 in0.0 mm
10:00 PM 61.0°F16.1°C 54.1°F12.3°C 78% 1.0 mph WSW1.6 kmh WSW 2.0 mph3.2 kmh 30.04 in1017.3 mb 0.00 in0.0 mm 0.00 in0.0 mm 0.00 in0.0 mm
10:10 PM 60.7°F15.9°C 54.2°F12.3°C 79% 2.0 mph SW3.2 kmh SW 3.0 mph4.8 kmh 30.04 in1017.3 mb 0.00 in0.0 mm 0.00 in0.0 mm 0.00 in0.0 mm
10:20 PM 60.5°F15.8°C 54.0°F12.2°C 79% 2.0 mph SW3.2 kmh SW 3.0 mph4.8 kmh 30.04 in1017.3 mb 0.00 in0.0 mm 0.00 in0.0 mm 0.00 in0.0 mm
10:30 PM 60.4°F15.8°C 54.2°F12.3°C 80% 1.0 mph SW1.6 kmh SW 2.0 mph3.2 kmh 30.04 in1017.3 mb 0.00 in0.0 mm 0.00 in0.0 mm 0.00 in0.0 mm
10:40 PM 60.3°F15.7°C 54.1°F12.3°C 80% 2.0 mph SW3.2 kmh SW 5.0 mph8.0 kmh 30.04 in1017.3 mb 0.00 in0.0 mm 0.00 in0.0 mm 0.00 in0.0 mm
10:50 PM 60.4°F15.8°C 54.5°F12.5°C 81% 3.0 mph SW4.8 kmh SW 5.0 mph8.0 kmh 30.04 in1017.3 mb 0.00 in0.0 mm 0.00 in0.0 mm 0.00 in0.0 mm
11:00 PM 60.5°F15.8°C 54.6°F12.6°C 81% 5.0 mph SW8.0 kmh SW 8.0 mph12.9 kmh 30.03 in1016.9 mb 0.00 in0.0 mm 0.00 in0.0 mm 0.00 in0.0 mm
11:10 PM 60.5°F15.8°C 54.6°F12.6°C 81% 3.0 mph SW4.8 kmh SW 7.0 mph11.3 kmh 30.03 in1016.9 mb 0.00 in0.0 mm 0.00 in0.0 mm 0.00 in0.0 mm
11:20 PM 60.6°F15.9°C 54.7°F12.6°C 81% 3.0 mph SW4.8 kmh SW 7.0 mph11.3 kmh 30.03 in1016.9 mb 0.00 in0.0 mm 0.00 in0.0 mm 0.00 in0.0 mm
11:30 PM 60.6°F15.9°C 54.7°F12.6°C 81% 3.0 mph SW4.8 kmh SW 5.0 mph8.0 kmh 30.04 in1017.3 mb 0.00 in0.0 mm 0.00 in0.0 mm 0.00 in0.0 mm
11:50 PM 60.5°F15.8°C 54.7°F12.6°C 81% 5.0 mph SW8.0 kmh SW 6.0 mph9.7 kmh 30.04 in1017.3 mb 0.00 in0.0 mm 0.00 in0.0 mm 0.00 in0.0 mm